createdAt,value
2017-06-01T00:00:52.754Z,0
2017-06-01T00:02:14.294Z,0
2017-06-01T00:03:36.797Z,0
2017-06-01T00:04:59.264Z,0
2017-06-01T00:06:21.277Z,0
2017-06-01T00:07:43.317Z,0
2017-06-01T00:09:05.485Z,0
2017-06-01T00:10:27.318Z,0
2017-06-01T00:11:49.491Z,0
2017-06-01T00:13:11.874Z,0
2017-06-01T00:14:33.986Z,0
2017-06-01T00:15:55.495Z,0
2017-06-01T00:17:17.646Z,0
2017-06-01T00:18:40.035Z,0
2017-06-01T00:20:01.374Z,0
2017-06-01T00:21:23.218Z,0
2017-06-01T00:22:45.375Z,0
2017-06-01T00:24:07.492Z,0
2017-06-01T00:25:29.084Z,0
2017-06-01T00:26:51.276Z,0
2017-06-01T00:28:13.512Z,0
2017-06-01T00:29:36.238Z,0
2017-06-01T00:30:58.374Z,0
2017-06-01T00:32:20.008Z,0
2017-06-01T00:33:42.183Z,0
2017-06-01T00:35:04.632Z,0
2017-06-01T00:36:25.946Z,0
2017-06-01T00:37:48.226Z,0
2017-06-01T00:39:10.425Z,0
2017-06-01T00:40:33.256Z,0
2017-06-01T00:41:55.420Z,0
2017-06-01T00:43:17.246Z,0
2017-06-01T00:44:39.862Z,0
2017-06-01T00:46:01.676Z,0
2017-06-01T00:47:23.497Z,0
2017-06-01T00:48:45.642Z,0
2017-06-01T00:50:07.767Z,0
2017-06-01T00:51:30.747Z,0
2017-06-01T00:52:53.231Z,0
2017-06-01T00:54:15.708Z,0
2017-06-01T00:55:37.876Z,0
2017-06-01T00:57:00.652Z,0
2017-06-01T00:58:22.480Z,0
2017-06-01T00:59:44.744Z,0
2017-06-01T01:01:06.243Z,0
2017-06-01T01:02:28.668Z,0
2017-06-01T01:03:50.265Z,0
2017-06-01T01:05:11.775Z,0
2017-06-01T01:06:33.596Z,0
2017-06-01T01:07:55.674Z,0
2017-06-01T01:09:17.625Z,0
2017-06-01T01:10:39.424Z,0
2017-06-01T01:12:00.926Z,0
2017-06-01T01:13:23.114Z,0
2017-06-01T01:14:44.956Z,0
2017-06-01T01:16:07.493Z,0
2017-06-01T01:17:29.025Z,0
2017-06-01T01:18:51.229Z,0
2017-06-01T01:20:13.595Z,0
2017-06-01T01:21:35.407Z,0
2017-06-01T01:22:56.914Z,0
2017-06-01T01:24:19.031Z,0
2017-06-01T01:25:41.213Z,0
2017-06-01T01:27:03.363Z,0
2017-06-01T01:28:25.924Z,0
2017-06-01T01:29:48.042Z,0
2017-06-01T01:31:09.873Z,0
2017-06-01T01:32:32.124Z,0
2017-06-01T01:33:54.263Z,0
2017-06-01T01:35:17.103Z,0
2017-06-01T01:36:38.392Z,0
2017-06-01T01:38:00.342Z,0
2017-06-01T01:39:21.851Z,0
2017-06-01T01:40:43.656Z,0
2017-06-01T01:42:05.501Z,0
2017-06-01T01:43:27.012Z,0
2017-06-01T01:44:48.532Z,0
2017-06-01T01:46:11.011Z,0
2017-06-01T01:47:33.142Z,0
2017-06-01T01:48:55.023Z,0
2017-06-01T01:50:16.862Z,0
2017-06-01T01:51:39.333Z,0
2017-06-01T01:53:01.502Z,0
2017-06-01T01:54:23.362Z,0
2017-06-01T01:55:44.552Z,0
2017-06-01T01:57:07.456Z,0
2017-06-01T01:58:29.650Z,0
2017-06-01T01:59:52.006Z,0
2017-06-01T02:01:13.991Z,0
2017-06-01T02:02:35.856Z,0
2017-06-01T02:03:57.890Z,0
2017-06-01T02:05:20.019Z,0
2017-06-01T02:06:41.626Z,0
2017-06-01T02:08:03.743Z,0
2017-06-01T02:09:25.652Z,0
2017-06-01T02:10:47.824Z,0
2017-06-01T02:12:09.969Z,0
2017-06-01T02:13:31.885Z,0
2017-06-01T02:14:53.734Z,0
2017-06-01T02:16:15.863Z,0
2017-06-01T02:17:37.553Z,0
2017-06-01T02:19:00.074Z,0
2017-06-01T02:20:22.453Z,0
2017-06-01T02:21:44.644Z,0
2017-06-01T02:23:06.793Z,0
2017-06-01T02:24:29.190Z,0
2017-06-01T02:25:51.022Z,0
2017-06-01T02:27:12.525Z,0
2017-06-01T02:28:34.039Z,0
2017-06-01T02:29:56.272Z,0
2017-06-01T02:31:18.807Z,0
2017-06-01T02:32:40.952Z,0
2017-06-01T02:34:02.553Z,0
2017-06-01T02:35:24.362Z,0
2017-06-01T02:36:46.826Z,0
2017-06-01T02:38:09.085Z,0
2017-06-01T02:39:31.249Z,0
2017-06-01T02:40:53.057Z,0
2017-06-01T02:42:14.883Z,0
2017-06-01T02:43:37.023Z,0
2017-06-01T02:44:59.173Z,0
2017-06-01T02:46:21.300Z,0
2017-06-01T02:47:43.773Z,0
2017-06-01T02:49:06.301Z,0
2017-06-01T02:50:28.751Z,5
2017-06-01T02:51:50.847Z,5
2017-06-01T02:53:12.685Z,5
2017-06-01T02:54:34.894Z,5
2017-06-01T02:55:57.183Z,5
2017-06-01T02:57:19.943Z,5
2017-06-01T02:58:42.435Z,5
2017-06-01T03:00:04.623Z,5
2017-06-01T03:01:27.192Z,10
2017-06-01T03:02:49.853Z,10
2017-06-01T03:04:11.370Z,10
2017-06-01T03:05:33.225Z,10
2017-06-01T03:06:55.053Z,10
2017-06-01T03:08:18.144Z,15
2017-06-01T03:09:39.994Z,15
2017-06-01T03:11:01.823Z,15
2017-06-01T03:12:23.964Z,20
2017-06-01T03:13:46.412Z,20
2017-06-01T03:15:08.602Z,20
2017-06-01T03:16:30.736Z,25
2017-06-01T03:17:52.554Z,25
2017-06-01T03:19:14.731Z,25
2017-06-01T03:20:36.561Z,30
2017-06-01T03:21:58.141Z,30
2017-06-01T03:23:19.682Z,30
2017-06-01T03:24:42.303Z,35
2017-06-01T03:26:04.442Z,35
2017-06-01T03:27:26.354Z,35
2017-06-01T03:28:48.613Z,40
2017-06-01T03:30:11.063Z,40
2017-06-01T03:31:33.190Z,45
2017-06-01T03:32:55.034Z,45
2017-06-01T03:34:17.169Z,45
2017-06-01T03:35:39.293Z,50
2017-06-01T03:37:01.530Z,55
2017-06-01T03:38:23.037Z,55
2017-06-01T03:39:45.313Z,55
2017-06-01T03:41:07.290Z,60
2017-06-01T03:42:29.133Z,60
2017-06-01T03:43:50.964Z,60
2017-06-01T03:45:13.183Z,65
2017-06-01T03:46:35.962Z,65
2017-06-01T03:47:57.839Z,65
2017-06-01T03:49:20.306Z,70
2017-06-01T03:50:42.230Z,70
2017-06-01T03:52:04.741Z,70
2017-06-01T03:53:26.575Z,75
2017-06-01T03:54:48.474Z,75
2017-06-01T03:56:10.615Z,80
2017-06-01T03:57:32.740Z,80
2017-06-01T03:58:53.662Z,85
2017-06-01T04:00:15.983Z,85
2017-06-01T04:01:38.172Z,90
2017-06-01T04:03:00.614Z,90
2017-06-01T04:04:23.073Z,90
2017-06-01T04:05:44.583Z,95
2017-06-01T04:07:06.474Z,95
2017-06-01T04:08:28.945Z,100
2017-06-01T04:09:51.489Z,100
2017-06-01T04:11:13.332Z,105
2017-06-01T04:12:35.516Z,105
2017-06-01T04:13:58.013Z,105
2017-06-01T04:15:20.151Z,110
2017-06-01T04:16:42.323Z,110
2017-06-01T04:18:03.913Z,115
2017-06-01T04:19:26.733Z,115
2017-06-01T04:20:48.584Z,120
2017-06-01T04:22:10.406Z,120
2017-06-01T04:23:32.235Z,120
2017-06-01T04:24:54.312Z,120
2017-06-01T04:26:16.782Z,125
2017-06-01T04:27:38.627Z,130
2017-06-01T04:29:00.131Z,130
2017-06-01T04:30:21.576Z,130
2017-06-01T04:31:43.414Z,130
2017-06-01T04:33:06.097Z,135
2017-06-01T04:34:27.283Z,135
2017-06-01T04:35:49.151Z,140
2017-06-01T04:37:10.972Z,140
2017-06-01T04:38:32.914Z,145
2017-06-01T04:39:55.093Z,150
2017-06-01T04:41:17.515Z,160
2017-06-01T04:42:39.672Z,170
2017-06-01T04:44:01.504Z,170
2017-06-01T04:45:23.643Z,180
2017-06-01T04:46:46.095Z,190
2017-06-01T04:48:08.177Z,200
2017-06-01T04:49:29.693Z,190
2017-06-01T04:50:51.548Z,230
2017-06-01T04:52:14.315Z,390
2017-06-01T04:53:36.144Z,645
2017-06-01T04:54:58.403Z,780
2017-06-01T04:56:20.226Z,785
2017-06-01T04:57:43.032Z,800
2017-06-01T04:59:04.314Z,830
2017-06-01T05:00:26.864Z,840
2017-06-01T05:01:49.029Z,855
2017-06-01T05:03:11.853Z,855
2017-06-01T05:04:33.993Z,870
2017-06-01T05:05:56.136Z,890
2017-06-01T05:07:18.702Z,935
2017-06-01T05:08:41.153Z,925
2017-06-01T05:10:03.003Z,945
2017-06-01T05:11:25.243Z,970
2017-06-01T05:12:47.403Z,970
2017-06-01T05:14:09.900Z,985
2017-06-01T05:15:31.751Z,975
2017-06-01T05:16:53.924Z,1010
2017-06-01T05:18:15.817Z,1045
2017-06-01T05:19:38.035Z,1055
2017-06-01T05:21:00.314Z,1090
2017-06-01T05:22:21.733Z,1095
2017-06-01T05:23:43.574Z,1125
2017-06-01T05:25:06.103Z,1170
2017-06-01T05:26:28.033Z,1185
2017-06-01T05:27:49.895Z,1160
2017-06-01T05:29:12.162Z,1170
2017-06-01T05:30:34.623Z,1190
2017-06-01T05:31:56.778Z,1115
2017-06-01T05:33:18.933Z,1120
2017-06-01T05:34:41.084Z,1175
2017-06-01T05:36:03.235Z,1205
2017-06-01T05:37:25.128Z,1200
2017-06-01T05:38:46.953Z,1205
2017-06-01T05:40:09.423Z,1265
2017-06-01T05:41:31.293Z,1305
2017-06-01T05:42:53.464Z,1220
2017-06-01T05:44:15.714Z,1140
2017-06-01T05:45:37.573Z,1135
2017-06-01T05:46:59.686Z,980
2017-06-01T05:48:22.164Z,890
2017-06-01T05:49:43.762Z,850
2017-06-01T05:51:05.302Z,810
2017-06-01T05:52:27.773Z,785
2017-06-01T05:53:50.263Z,785
2017-06-01T05:55:12.111Z,870
2017-06-01T05:56:33.956Z,895
2017-06-01T05:57:56.795Z,820
2017-06-01T05:59:18.321Z,800
2017-06-01T06:00:40.468Z,795
2017-06-01T06:02:02.384Z,770
2017-06-01T06:03:24.581Z,720
2017-06-01T06:04:47.074Z,700
2017-06-01T06:06:09.563Z,695
2017-06-01T06:07:31.726Z,670
2017-06-01T06:08:54.503Z,680
2017-06-01T06:10:17.077Z,665
2017-06-01T06:11:39.287Z,660
2017-06-01T06:13:01.212Z,675
2017-06-01T06:14:24.005Z,670
2017-06-01T06:15:46.206Z,665
2017-06-01T06:17:08.686Z,655
2017-06-01T06:18:30.643Z,610
2017-06-01T06:19:52.784Z,580
2017-06-01T06:21:14.953Z,580
2017-06-01T06:22:36.904Z,540
2017-06-01T06:23:58.135Z,530
2017-06-01T06:25:20.644Z,540
2017-06-01T06:26:43.191Z,545
2017-06-01T06:28:05.063Z,545
2017-06-01T06:29:26.912Z,550
2017-06-01T06:30:49.492Z,545
2017-06-01T06:32:11.338Z,545
2017-06-01T06:33:33.514Z,550
2017-06-01T06:34:55.433Z,515
2017-06-01T06:36:17.913Z,535
2017-06-01T06:37:39.953Z,540
2017-06-01T06:39:01.824Z,540
2017-06-01T06:40:24.343Z,550
2017-06-01T06:41:46.469Z,555
2017-06-01T06:43:08.626Z,540
2017-06-01T06:44:30.804Z,560
2017-06-01T06:45:53.024Z,555
2017-06-01T06:47:15.805Z,550
2017-06-01T06:48:37.683Z,550
2017-06-01T06:49:59.533Z,550
2017-06-01T06:51:21.694Z,555
2017-06-01T06:52:44.235Z,565
2017-06-01T06:54:06.139Z,575
2017-06-01T06:55:27.994Z,575
2017-06-01T06:56:50.173Z,575
2017-06-01T06:58:12.654Z,580
2017-06-01T06:59:34.626Z,580
2017-06-01T07:00:56.494Z,585
2017-06-01T07:02:18.974Z,600
2017-06-01T07:03:41.814Z,610
2017-06-01T07:05:03.986Z,600
2017-06-01T07:06:25.531Z,595
2017-06-01T07:07:47.382Z,595
2017-06-01T07:09:09.284Z,615
2017-06-01T07:10:31.539Z,600
2017-06-01T07:11:53.484Z,595
2017-06-01T07:13:15.966Z,590
2017-06-01T07:14:38.502Z,585
2017-06-01T07:16:00.033Z,575
2017-06-01T07:17:22.205Z,570
2017-06-01T07:18:44.452Z,565
2017-06-01T07:20:06.872Z,565
2017-06-01T07:21:29.504Z,555
2017-06-01T07:22:51.032Z,570
2017-06-01T07:24:12.890Z,580
2017-06-01T07:25:35.320Z,580
2017-06-01T07:26:56.863Z,565
2017-06-01T07:28:19.021Z,580
2017-06-01T07:29:40.884Z,575
2017-06-01T07:31:03.352Z,590
2017-06-01T07:32:25.353Z,360
2017-06-01T07:33:47.260Z,565
2017-06-01T07:35:08.913Z,535
2017-06-01T07:36:31.020Z,520
2017-06-01T07:37:53.494Z,530
2017-06-01T07:39:15.976Z,525
2017-06-01T07:40:37.843Z,515
2017-06-01T07:42:00.035Z,505
2017-06-01T07:43:22.182Z,530
2017-06-01T07:44:43.722Z,530
2017-06-01T07:46:05.262Z,520
2017-06-01T07:47:27.355Z,505
2017-06-01T07:48:49.215Z,515
2017-06-01T07:50:11.145Z,510
2017-06-01T07:51:33.313Z,510
2017-06-01T07:52:55.456Z,535
2017-06-01T07:54:17.651Z,540
2017-06-01T07:55:39.813Z,480
2017-06-01T07:57:02.292Z,485
2017-06-01T07:58:24.772Z,440
2017-06-01T07:59:47.262Z,480
2017-06-01T08:01:09.510Z,515
2017-06-01T08:02:31.145Z,520
2017-06-01T08:03:53.322Z,525
2017-06-01T08:05:15.540Z,525
2017-06-01T08:06:38.031Z,500
2017-06-01T08:08:00.541Z,510
2017-06-01T08:09:22.091Z,535
2017-06-01T08:10:44.102Z,505
2017-06-01T08:12:06.086Z,470
2017-06-01T08:13:27.623Z,435
2017-06-01T08:14:50.364Z,420
2017-06-01T08:16:12.541Z,300
2017-06-01T08:17:34.089Z,270
2017-06-01T08:18:56.573Z,260
2017-06-01T08:20:19.153Z,255
2017-06-01T08:21:40.995Z,245
2017-06-01T08:23:02.841Z,225
2017-06-01T08:24:25.053Z,220
2017-06-01T08:25:47.262Z,220
2017-06-01T08:27:08.787Z,215
2017-06-01T08:28:31.305Z,210
2017-06-01T08:29:53.841Z,210
2017-06-01T08:31:16.723Z,205
2017-06-01T08:32:38.873Z,200
2017-06-01T08:34:00.389Z,195
2017-06-01T08:35:21.955Z,190
2017-06-01T08:36:44.416Z,195
2017-06-01T08:38:06.892Z,195
2017-06-01T08:39:28.740Z,200
2017-06-01T08:40:50.892Z,195
2017-06-01T08:42:13.442Z,190
2017-06-01T08:43:35.972Z,195
2017-06-01T08:44:57.801Z,195
2017-06-01T08:46:19.671Z,195
2017-06-01T08:47:41.313Z,195
2017-06-01T08:49:03.470Z,195
2017-06-01T08:50:25.634Z,195
2017-06-01T08:51:47.141Z,195
2017-06-01T08:53:09.984Z,195
2017-06-01T08:54:31.831Z,190
2017-06-01T08:55:53.682Z,190
2017-06-01T08:57:16.154Z,185
2017-06-01T08:58:38.922Z,185
2017-06-01T09:00:01.161Z,185
2017-06-01T09:01:23.321Z,185
2017-06-01T09:02:45.163Z,185
2017-06-01T09:04:07.315Z,185
2017-06-01T09:05:29.161Z,185
2017-06-01T09:06:51.317Z,185
2017-06-01T09:08:13.593Z,185
2017-06-01T09:09:35.758Z,185
2017-06-01T09:10:58.012Z,180
2017-06-01T09:12:19.542Z,175
2017-06-01T09:13:41.812Z,180
2017-06-01T09:15:04.373Z,180
2017-06-01T09:16:26.204Z,180
2017-06-01T09:17:48.364Z,180
2017-06-01T09:19:10.952Z,180
2017-06-01T09:20:33.099Z,180
2017-06-01T09:21:55.646Z,180
2017-06-01T09:23:18.123Z,180
2017-06-01T09:24:40.276Z,180
2017-06-01T09:26:02.393Z,180
2017-06-01T09:27:24.321Z,180
2017-06-01T09:28:45.860Z,180
2017-06-01T09:30:07.712Z,180
2017-06-01T09:31:30.223Z,175
2017-06-01T09:32:52.443Z,175
2017-06-01T09:34:14.905Z,175
2017-06-01T09:35:37.143Z,170
2017-06-01T09:36:59.974Z,180
2017-06-01T09:38:21.842Z,180
2017-06-01T09:39:43.042Z,175
2017-06-01T09:41:05.203Z,175
2017-06-01T09:42:27.520Z,175
2017-06-01T09:43:50.091Z,175
2017-06-01T09:45:11.921Z,175
2017-06-01T09:46:33.762Z,175
2017-06-01T09:47:55.633Z,175
2017-06-01T09:49:18.142Z,175
2017-06-01T09:50:39.677Z,175
2017-06-01T09:52:02.300Z,175
2017-06-01T09:53:24.433Z,175
2017-06-01T09:54:46.611Z,175
2017-06-01T09:56:08.481Z,175
2017-06-01T09:57:30.335Z,175
2017-06-01T09:58:53.249Z,175
2017-06-01T10:00:14.447Z,170
2017-06-01T10:01:36.687Z,170
2017-06-01T10:02:58.635Z,170
2017-06-01T10:04:21.051Z,170
2017-06-01T10:05:42.592Z,170
2017-06-01T10:07:04.117Z,170
2017-06-01T10:08:25.952Z,175
2017-06-01T10:09:47.863Z,170
2017-06-01T10:11:09.722Z,175
2017-06-01T10:12:31.612Z,170
2017-06-01T10:13:53.785Z,170
2017-06-01T10:15:16.335Z,170
2017-06-01T10:16:38.281Z,170
2017-06-01T10:18:00.430Z,170
2017-06-01T10:19:22.264Z,170
2017-06-01T10:20:45.016Z,170
2017-06-01T10:22:06.550Z,170
2017-06-01T10:23:28.701Z,170
2017-06-01T10:24:50.913Z,170
2017-06-01T10:26:13.692Z,170
2017-06-01T10:27:36.172Z,170
2017-06-01T10:28:57.372Z,175
2017-06-01T10:30:18.898Z,175
2017-06-01T10:31:41.324Z,175
2017-06-01T10:33:03.481Z,170
2017-06-01T10:34:25.950Z,170
2017-06-01T10:35:47.798Z,170
2017-06-01T10:37:10.831Z,170
2017-06-01T10:38:33.308Z,170
2017-06-01T10:39:55.792Z,175
2017-06-01T10:41:18.372Z,170
2017-06-01T10:42:40.503Z,170
2017-06-01T10:44:02.709Z,170
2017-06-01T10:45:24.865Z,170
2017-06-01T10:46:47.123Z,175
2017-06-01T10:48:09.585Z,175
2017-06-01T10:49:32.062Z,175
2017-06-01T10:50:54.532Z,175
2017-06-01T10:52:16.355Z,175
2017-06-01T10:53:38.481Z,175
2017-06-01T10:55:00.622Z,175
2017-06-01T10:56:22.445Z,175
2017-06-01T10:57:44.600Z,175
2017-06-01T10:59:06.793Z,175
2017-06-01T11:00:29.072Z,180
2017-06-01T11:01:51.643Z,180
2017-06-01T11:03:13.213Z,185
2017-06-01T11:04:35.358Z,185
2017-06-01T11:05:57.210Z,190
2017-06-01T11:07:19.108Z,185
2017-06-01T11:08:40.673Z,185
2017-06-01T11:10:02.823Z,185
2017-06-01T11:11:24.344Z,185
2017-06-01T11:12:45.872Z,185
2017-06-01T11:14:08.040Z,180
2017-06-01T11:15:29.803Z,180
2017-06-01T11:16:51.951Z,185
2017-06-01T11:18:13.473Z,185
2017-06-01T11:19:35.712Z,185
2017-06-01T11:20:57.790Z,185
2017-06-01T11:22:20.013Z,185
2017-06-01T11:23:42.143Z,190
2017-06-01T11:25:04.686Z,190
2017-06-01T11:26:27.214Z,190
2017-06-01T11:27:49.383Z,190
2017-06-01T11:29:11.551Z,190
2017-06-01T11:30:33.491Z,190
2017-06-01T11:31:55.591Z,190
2017-06-01T11:33:17.781Z,190
2017-06-01T11:34:40.048Z,190
2017-06-01T11:36:01.901Z,190
2017-06-01T11:37:24.433Z,190
2017-06-01T11:38:46.654Z,190
2017-06-01T11:40:08.825Z,190
2017-06-01T11:41:30.374Z,190
2017-06-01T11:42:52.806Z,190
2017-06-01T11:44:14.968Z,190
2017-06-01T11:45:36.809Z,190
2017-06-01T11:46:58.994Z,190
2017-06-01T11:48:21.450Z,190
2017-06-01T11:49:43.701Z,190
2017-06-01T11:51:05.933Z,190
2017-06-01T11:52:27.821Z,190
2017-06-01T11:53:49.642Z,185
2017-06-01T11:55:11.845Z,185
2017-06-01T11:56:33.703Z,175
2017-06-01T11:57:56.224Z,175
2017-06-01T11:59:18.590Z,175
2017-06-01T12:00:40.902Z,175
2017-06-01T12:02:02.742Z,170
2017-06-01T12:03:24.249Z,170
2017-06-01T12:04:46.394Z,170
2017-06-01T12:06:08.235Z,170
2017-06-01T12:07:30.408Z,175
2017-06-01T12:08:52.322Z,170
2017-06-01T12:10:14.831Z,170
2017-06-01T12:11:36.681Z,170
2017-06-01T12:12:58.859Z,170
2017-06-01T12:14:21.122Z,165
2017-06-01T12:15:43.908Z,170
2017-06-01T12:17:06.392Z,170
2017-06-01T12:18:28.541Z,165
2017-06-01T12:19:51.023Z,165
2017-06-01T12:21:13.582Z,170
2017-06-01T12:22:35.129Z,170
2017-06-01T12:23:57.303Z,170
2017-06-01T12:25:19.792Z,170
2017-06-01T12:26:42.302Z,175
2017-06-01T12:28:04.452Z,175
2017-06-01T12:29:26.323Z,175
2017-06-01T12:30:48.174Z,175
2017-06-01T12:32:10.363Z,175
2017-06-01T12:33:32.543Z,175
2017-06-01T12:34:54.452Z,170
2017-06-01T12:36:16.301Z,165
2017-06-01T12:37:38.522Z,180
2017-06-01T12:39:00.694Z,175
2017-06-01T12:40:23.103Z,165
2017-06-01T12:41:45.604Z,170
2017-06-01T12:43:08.084Z,165
2017-06-01T12:44:30.254Z,165
2017-06-01T12:45:52.413Z,165
2017-06-01T12:47:13.981Z,165
2017-06-01T12:48:36.454Z,165
2017-06-01T12:49:58.381Z,165
2017-06-01T12:51:20.910Z,165
2017-06-01T12:52:43.112Z,165
2017-06-01T12:54:05.559Z,160
2017-06-01T12:55:28.043Z,155
2017-06-01T12:56:50.487Z,155
2017-06-01T12:58:12.987Z,160
2017-06-01T12:59:35.572Z,155
2017-06-01T13:00:57.462Z,155
2017-06-01T13:02:19.313Z,155
2017-06-01T13:03:41.825Z,150
2017-06-01T13:05:04.333Z,160
2017-06-01T13:06:26.195Z,155
2017-06-01T13:07:48.470Z,160
2017-06-01T13:09:10.107Z,155
2017-06-01T13:10:31.671Z,155
2017-06-01T13:11:53.510Z,155
2017-06-01T13:13:15.344Z,155
2017-06-01T13:14:37.813Z,160
2017-06-01T13:16:00.643Z,155
2017-06-01T13:17:22.484Z,160
2017-06-01T13:18:44.701Z,155
2017-06-01T13:20:06.236Z,155
2017-06-01T13:21:29.140Z,155
2017-06-01T13:22:50.671Z,155
2017-06-01T13:24:12.852Z,150
2017-06-01T13:25:35.336Z,150
2017-06-01T13:26:58.301Z,150
2017-06-01T13:28:20.791Z,150
2017-06-01T13:29:43.051Z,150
2017-06-01T13:31:04.884Z,155
2017-06-01T13:32:27.124Z,150
2017-06-01T13:33:48.659Z,150
2017-06-01T13:35:10.198Z,150
2017-06-01T13:36:32.683Z,150
2017-06-01T13:37:55.533Z,150
2017-06-01T13:39:17.712Z,150
2017-06-01T13:40:40.080Z,150
2017-06-01T13:42:02.262Z,150
2017-06-01T13:43:24.733Z,150
2017-06-01T13:44:47.222Z,150
2017-06-01T13:46:09.385Z,150
2017-06-01T13:47:30.922Z,150
2017-06-01T13:48:53.393Z,150
2017-06-01T13:50:16.013Z,150
2017-06-01T13:51:37.902Z,150
2017-06-01T13:52:59.860Z,150
2017-06-01T13:54:22.740Z,150
2017-06-01T13:55:44.710Z,150
2017-06-01T13:57:06.608Z,150
2017-06-01T13:58:29.101Z,150
2017-06-01T13:59:51.982Z,150
2017-06-01T14:01:14.452Z,150
2017-06-01T14:02:36.961Z,150
2017-06-01T14:03:58.819Z,150
2017-06-01T14:05:21.334Z,150
2017-06-01T14:06:43.189Z,150
2017-06-01T14:08:05.052Z,150
2017-06-01T14:09:27.222Z,150
2017-06-01T14:10:49.993Z,150
2017-06-01T14:12:11.847Z,150
2017-06-01T14:13:33.751Z,150
2017-06-01T14:14:55.922Z,150
2017-06-01T14:16:18.406Z,150
2017-06-01T14:17:40.714Z,150
2017-06-01T14:19:02.631Z,150
2017-06-01T14:20:24.961Z,150
2017-06-01T14:21:46.906Z,150
2017-06-01T14:23:08.772Z,150
2017-06-01T14:24:30.673Z,150
2017-06-01T14:25:52.872Z,150
2017-06-01T14:27:15.290Z,150
2017-06-01T14:28:37.502Z,150
2017-06-01T14:29:59.682Z,150
2017-06-01T14:31:21.510Z,150
2017-06-01T14:32:44.313Z,150
2017-06-01T14:34:06.805Z,150
2017-06-01T14:35:28.388Z,150
2017-06-01T14:36:50.241Z,150
2017-06-01T14:38:12.492Z,150
2017-06-01T14:39:34.963Z,150
2017-06-01T14:40:57.552Z,150
2017-06-01T14:42:19.412Z,150
2017-06-01T14:43:41.911Z,150
2017-06-01T14:45:04.397Z,150
2017-06-01T14:46:26.649Z,150
2017-06-01T14:47:49.123Z,150
2017-06-01T14:49:11.639Z,145
2017-06-01T14:50:34.102Z,145
2017-06-01T14:51:56.360Z,145
2017-06-01T14:53:18.076Z,145
2017-06-01T14:54:40.681Z,145
2017-06-01T14:56:02.973Z,145
2017-06-01T14:57:25.452Z,145
2017-06-01T14:58:47.638Z,145
2017-06-01T15:00:10.482Z,145
2017-06-01T15:01:32.676Z,145
2017-06-01T15:02:54.264Z,145
2017-06-01T15:04:16.820Z,145
2017-06-01T15:05:39.293Z,145
2017-06-01T15:07:01.462Z,145
2017-06-01T15:08:23.636Z,145
2017-06-01T15:09:45.494Z,145
2017-06-01T15:11:08.104Z,145
2017-06-01T15:12:30.262Z,145
2017-06-01T15:13:52.791Z,145
2017-06-01T15:15:15.058Z,145
2017-06-01T15:16:37.574Z,145
2017-06-01T15:17:59.740Z,145
2017-06-01T15:19:21.273Z,145
2017-06-01T15:20:43.783Z,145
2017-06-01T15:22:06.694Z,145
2017-06-01T15:23:28.550Z,145
2017-06-01T15:24:51.274Z,145
2017-06-01T15:26:13.111Z,145
2017-06-01T15:27:36.123Z,145
2017-06-01T15:28:58.680Z,145
2017-06-01T15:30:21.174Z,145
2017-06-01T15:31:43.362Z,145
2017-06-01T15:33:05.783Z,145
2017-06-01T15:34:28.440Z,145
2017-06-01T15:35:50.422Z,145
2017-06-01T15:37:12.590Z,145
2017-06-01T15:38:35.422Z,145
2017-06-01T15:39:57.935Z,145
2017-06-01T15:41:19.822Z,145
2017-06-01T15:42:42.151Z,145
2017-06-01T15:44:04.589Z,145
2017-06-01T15:45:27.104Z,140
2017-06-01T15:46:49.349Z,140
2017-06-01T15:48:11.523Z,140
2017-06-01T15:49:33.731Z,140
2017-06-01T15:50:55.995Z,140
2017-06-01T15:52:18.533Z,140
2017-06-01T15:53:40.373Z,140
2017-06-01T15:55:03.114Z,140
2017-06-01T15:56:25.549Z,140
2017-06-01T15:57:48.035Z,140
2017-06-01T15:59:10.527Z,140
2017-06-01T16:00:33.046Z,140
2017-06-01T16:01:54.921Z,140
2017-06-01T16:03:16.790Z,140
2017-06-01T16:04:38.972Z,140
2017-06-01T16:06:02.023Z,140
2017-06-01T16:07:24.412Z,140
2017-06-01T16:08:45.953Z,140
2017-06-01T16:10:07.323Z,135
2017-06-01T16:11:29.912Z,135
2017-06-01T16:12:52.072Z,135
2017-06-01T16:14:13.986Z,135
2017-06-01T16:15:36.501Z,135
2017-06-01T16:16:59.256Z,135
2017-06-01T16:18:21.437Z,135
2017-06-01T16:19:43.658Z,135
2017-06-01T16:21:05.616Z,135
2017-06-01T16:22:28.092Z,135
2017-06-01T16:23:50.027Z,135
2017-06-01T16:25:12.192Z,135
2017-06-01T16:26:34.742Z,135
2017-06-01T16:27:57.522Z,135
2017-06-01T16:29:20.104Z,135
2017-06-01T16:30:42.284Z,135
2017-06-01T16:32:04.860Z,130
2017-06-01T16:33:27.017Z,130
2017-06-01T16:34:49.202Z,130
2017-06-01T16:36:10.424Z,130
2017-06-01T16:37:33.109Z,130
2017-06-01T16:38:55.463Z,130
2017-06-01T16:40:17.692Z,130
2017-06-01T16:41:39.917Z,130
2017-06-01T16:43:02.266Z,130
2017-06-01T16:44:25.139Z,130
2017-06-01T16:45:47.298Z,130
2017-06-01T16:47:09.589Z,130
2017-06-01T16:48:31.783Z,130
2017-06-01T16:49:54.629Z,130
2017-06-01T16:51:16.500Z,130
2017-06-01T16:52:38.700Z,130
2017-06-01T16:54:00.332Z,130
2017-06-01T16:55:22.862Z,130
2017-06-01T16:56:45.373Z,130
2017-06-01T16:58:07.931Z,125
2017-06-01T16:59:29.795Z,125
2017-06-01T17:00:52.586Z,125
2017-06-01T17:02:14.921Z,125
2017-06-01T17:03:37.419Z,130
2017-06-01T17:04:59.944Z,130
2017-06-01T17:06:22.104Z,130
2017-06-01T17:07:44.297Z,130
2017-06-01T17:09:06.153Z,125
2017-06-01T17:10:28.353Z,125
2017-06-01T17:11:51.103Z,125
2017-06-01T17:13:13.283Z,125
2017-06-01T17:14:35.923Z,125
2017-06-01T17:15:58.414Z,125
2017-06-01T17:17:20.711Z,125
2017-06-01T17:18:42.889Z,125
2017-06-01T17:20:05.099Z,125
2017-06-01T17:21:27.593Z,120
2017-06-01T17:22:50.393Z,120
2017-06-01T17:24:12.253Z,120
2017-06-01T17:25:34.218Z,120
2017-06-01T17:26:56.438Z,120
2017-06-01T17:28:18.449Z,120
2017-06-01T17:29:41.041Z,120
2017-06-01T17:31:03.082Z,120
2017-06-01T17:32:25.599Z,115
2017-06-01T17:33:48.382Z,115
2017-06-01T17:35:10.643Z,115
2017-06-01T17:36:33.137Z,115
2017-06-01T17:37:55.654Z,115
2017-06-01T17:39:17.988Z,115
2017-06-01T17:40:39.861Z,115
2017-06-01T17:42:02.085Z,115
2017-06-01T17:43:24.589Z,110
2017-06-01T17:44:47.401Z,110
2017-06-01T17:46:09.985Z,110
2017-06-01T17:47:32.789Z,110
2017-06-01T17:48:54.966Z,110
2017-06-01T17:50:17.148Z,105
2017-06-01T17:51:39.660Z,105
2017-06-01T17:53:01.269Z,105
2017-06-01T17:54:23.133Z,100
2017-06-01T17:55:45.555Z,100
2017-06-01T17:57:07.747Z,100
2017-06-01T17:58:30.002Z,100
2017-06-01T17:59:52.491Z,100
2017-06-01T18:01:15.283Z,100
2017-06-01T18:02:37.447Z,100
2017-06-01T18:03:59.928Z,100
2017-06-01T18:05:22.195Z,95
2017-06-01T18:06:44.956Z,95
2017-06-01T18:08:07.143Z,95
2017-06-01T18:09:29.379Z,95
2017-06-01T18:10:51.955Z,95
2017-06-01T18:12:14.169Z,95
2017-06-01T18:13:36.356Z,95
2017-06-01T18:14:58.201Z,90
2017-06-01T18:16:20.072Z,90
2017-06-01T18:17:42.557Z,90
2017-06-01T18:19:04.718Z,85
2017-06-01T18:20:26.625Z,85
2017-06-01T18:21:48.838Z,85
2017-06-01T18:23:11.269Z,85
2017-06-01T18:24:33.979Z,85
2017-06-01T18:25:55.951Z,85
2017-06-01T18:27:18.265Z,80
2017-06-01T18:28:40.109Z,80
2017-06-01T18:30:02.230Z,80
2017-06-01T18:31:24.492Z,80
2017-06-01T18:32:46.663Z,80
2017-06-01T18:34:09.141Z,80
2017-06-01T18:35:31.630Z,75
2017-06-01T18:36:54.179Z,75
2017-06-01T18:38:16.360Z,75
2017-06-01T18:39:39.102Z,75
2017-06-01T18:41:01.599Z,75
2017-06-01T18:42:24.152Z,75
2017-06-01T18:43:46.354Z,70
2017-06-01T18:45:08.825Z,70
2017-06-01T18:46:31.331Z,70
2017-06-01T18:47:53.970Z,65
2017-06-01T18:49:15.848Z,65
2017-06-01T18:50:38.501Z,65
2017-06-01T18:52:00.811Z,60
2017-06-01T18:53:23.098Z,60
2017-06-01T18:54:45.393Z,60
2017-06-01T18:56:08.241Z,60
2017-06-01T18:57:30.820Z,55
2017-06-01T18:58:53.473Z,55
2017-06-01T19:00:15.361Z,50
2017-06-01T19:01:38.162Z,50
2017-06-01T19:03:00.647Z,50
2017-06-01T19:04:22.748Z,45
2017-06-01T19:05:44.663Z,45
2017-06-01T19:07:06.951Z,45